Time,TemperatureF,DewpointF,PressureIn,WindDirection,WindDirectionDegrees,WindSpeedMPH,WindSpeedGustMPH,Humidity,HourlyPrecipIn,Conditions,Clouds,dailyrainin,SolarRadiationWatts/m^2,SoftwareType,DateUTC
2013-02-06 00:00:00,62.2,52.7,25.97,East,90,0.0,-999.0,71,0.00,,,0.00,0,Wunderground v.1.15,2013-02-06 06:00:00,
2013-02-06 00:05:00,62.2,52.7,25.97,East,90,0.0,-999.0,71,0.00,,,0.00,0,Wunderground v.1.15,2013-02-06 06:05:00,
2013-02-06 00:10:00,62.0,52.5,25.97,East,90,0.0,-999.0,71,0.00,,,0.00,0,Wunderground v.1.15,2013-02-06 06:10:00,
2013-02-06 00:15:00,61.7,52.2,25.97,East,90,0.0,-999.0,71,0.00,,,0.00,0,Wunderground v.1.15,2013-02-06 06:15:00,
2013-02-06 00:20:00,61.2,51.3,25.97,East,90,0.0,-999.0,70,0.00,,,0.00,0,Wunderground v.1.15,2013-02-06 06:20:00,
2013-02-06 00:25:00,61.1,50.8,25.96,N/A,-737280,0.0,-999.0,69,0.00,,,0.00,0,Wunderground v.1.15,2013-02-06 06:25:00,
2013-02-06 00:30:00,60.9,51.0,25.96,East,90,0.0,-999.0,70,0.00,,,0.00,0,Wunderground v.1.15,2013-02-06 06:30:00,
2013-02-06 00:35:00,60.9,51.0,25.96,ESE,113,0.0,-999.0,70,0.00,,,0.00,0,Wunderground v.1.15,2013-02-06 06:35:00,
2013-02-06 00:40:00,60.9,49.9,25.96,ESE,113,0.0,-999.0,67,0.00,,,0.00,0,Wunderground v.1.15,2013-02-06 06:40:00,
2013-02-06 00:45:00,61.1,50.8,25.95,ESE,113,0.0,-999.0,69,0.00,,,0.00,0,Wunderground v.1.15,2013-02-06 06:45:00,
2013-02-06 00:50:00,61.1,50.8,25.95,ESE,113,0.0,-999.0,69,0.00,,,0.00,0,Wunderground v.1.15,2013-02-06 06:50:00,
2013-02-06 00:55:00,60.8,51.0,25.95,ESE,115,0.0,0.0,70,0.00,,,0.00,0,Wunderground v.1.15,2013-02-06 06:55:00,
2013-02-06 01:00:00,60.6,51.1,25.95,ESE,113,0.0,-999.0,71,0.00,,,0.00,0,Wunderground v.1.15,2013-02-06 07:00:00,
2013-02-06 01:05:00,60.3,50.9,25.95,ESE,113,0.0,-999.0,71,0.00,,,0.00,0,Wunderground v.1.15,2013-02-06 07:05:00,
2013-02-06 01:10:00,60.3,50.9,25.95,ESE,113,0.0,-999.0,71,0.00,,,0.00,0,Wunderground v.1.15,2013-02-06 07:10:00,
2013-02-06 01:15:00,60.1,50.7,25.95,ESE,113,1.0,-999.0,71,0.00,,,0.00,0,Wunderground v.1.15,2013-02-06 07:15:00,
2013-02-06 01:20:00,60.1,50.7,25.94,NE,45,0.0,-999.0,71,0.00,,,0.00,0,Wunderground v.1.15,2013-02-06 07:20:00,
2013-02-06 01:25:00,60.1,50.3,25.94,NE,45,1.0,-999.0,70,0.00,,,0.00,0,Wunderground v.1.15,2013-02-06 07:25:00,
2013-02-06 01:30:00,60.1,50.3,25.94,NE,45,1.0,-999.0,70,0.00,,,0.00,0,Wunderground v.1.15,2013-02-06 07:30:00,
2013-02-06 01:34:00,60.3,50.1,25.94,SE,127,1.0,1.0,69,0.00,,,0.00,0,Wunderground v.1.15,2013-02-06 07:34:00,
2013-02-06 01:35:00,60.3,50.1,25.94,SE,135,1.0,-999.0,69,0.00,,,0.00,0,Wunderground v.1.15,2013-02-06 07:35:00,
2013-02-06 01:40:00,60.3,50.1,25.94,SE,127,1.0,1.0,69,0.00,,,0.00,0,Wunderground v.1.15,2013-02-06 07:40:00,
2013-02-06 01:45:00,60.3,49.7,25.94,SE,135,1.0,-999.0,68,0.00,,,0.00,0,Wunderground v.1.15,2013-02-06 07:45:00,
2013-02-06 01:50:00,60.3,49.7,25.94,ESE,123,1.0,1.0,68,0.00,,,0.00,0,Wunderground v.1.15,2013-02-06 07:50:00,
2013-02-06 01:55:00,60.3,49.7,25.94,ESE,123,0.0,1.0,68,0.00,,,0.00,0,Wunderground v.1.15,2013-02-06 07:55:00,
2013-02-06 02:00:00,60.1,49.5,25.94,SE,135,2.0,-999.0,68,0.00,,,0.00,0,Wunderground v.1.15,2013-02-06 08:00:00,
2013-02-06 02:05:00,60.1,49.5,25.94,SSE,168,2.0,7.0,68,0.00,,,0.00,0,Wunderground v.1.15,2013-02-06 08:05:00,
2013-02-06 02:10:00,60.0,49.8,25.94,SSE,157,2.0,2.0,69,0.00,,,0.00,0,Wunderground v.1.15,2013-02-06 08:10:00,
2013-02-06 02:15:00,60.0,49.4,25.94,SSE,158,1.0,-999.0,68,0.00,,,0.00,0,Wunderground v.1.15,2013-02-06 08:15:00,
2013-02-06 02:20:00,60.1,49.5,25.94,ESE,107,1.0,1.0,68,0.00,,,0.00,0,Wunderground v.1.15,2013-02-06 08:20:00,
2013-02-06 02:25:00,60.1,50.3,25.94,ESE,113,1.0,-999.0,70,0.00,,,0.00,0,Wunderground v.1.15,2013-02-06 08:25:00,
2013-02-06 02:30:00,60.1,50.3,25.94,ESE,109,1.0,1.0,70,0.00,,,0.00,0,Wunderground v.1.15,2013-02-06 08:30:00,
2013-02-06 02:35:00,60.1,50.7,25.94,ESE,109,0.0,1.0,71,0.00,,,0.00,0,Wunderground v.1.15,2013-02-06 08:35:00,
2013-02-06 02:40:00,60.1,50.7,25.94,ESE,113,1.0,-999.0,71,0.00,,,0.00,0,Wunderground v.1.15,2013-02-06 08:40:00,
2013-02-06 02:45:00,60.1,51.0,25.93,SE,146,1.0,1.0,72,0.00,,,0.00,0,Wunderground v.1.15,2013-02-06 08:45:00,
2013-02-06 02:50:00,60.3,50.5,25.93,North,355,1.0,1.0,70,0.00,,,0.00,0,Wunderground v.1.15,2013-02-06 08:50:00,
2013-02-06 02:55:00,60.4,49.8,25.93,North,0,1.0,-999.0,68,0.00,,,0.00,0,Wunderground v.1.15,2013-02-06 08:55:00,
2013-02-06 03:00:00,60.4,50.6,25.94,North,5,1.0,2.0,70,0.00,,,0.00,0,Wunderground v.1.15,2013-02-06 09:00:00,
2013-02-06 03:05:00,60.3,50.9,25.94,North,0,1.0,-999.0,71,0.00,,,0.00,0,Wunderground v.1.15,2013-02-06 09:05:00,
2013-02-06 03:10:00,60.1,50.3,25.93,SE,130,1.0,1.0,70,0.00,,,0.00,0,Wunderground v.1.15,2013-02-06 09:10:00,
2013-02-06 03:15:00,60.1,49.9,25.93,ENE,68,0.0,-999.0,69,0.00,,,0.00,0,Wunderground v.1.15,2013-02-06 09:15:00,
2013-02-06 03:20:00,60.1,49.1,25.93,SE,129,0.0,0.0,67,0.00,,,0.00,0,Wunderground v.1.15,2013-02-06 09:20:00,
2013-02-06 03:25:00,60.4,48.6,25.93,SE,135,2.0,-999.0,65,0.00,,,0.00,0,Wunderground v.1.15,2013-02-06 09:25:00,
2013-02-06 03:30:00,60.9,48.6,25.93,ENE,65,1.0,2.0,64,0.00,,,0.00,0,Wunderground v.1.15,2013-02-06 09:30:00,
2013-02-06 03:35:00,61.1,49.2,25.93,ENE,68,1.0,-999.0,65,0.00,,,0.00,0,Wunderground v.1.15,2013-02-06 09:35:00,
2013-02-06 03:40:00,60.8,49.0,25.93,East,99,1.0,1.0,65,0.00,,,0.00,0,Wunderground v.1.15,2013-02-06 09:40:00,
2013-02-06 03:45:00,60.1,49.1,25.93,East,90,1.0,-999.0,67,0.00,,,0.00,0,Wunderground v.1.15,2013-02-06 09:45:00,
2013-02-06 03:50:00,59.1,49.3,25.94,ESE,114,1.0,1.0,70,0.00,,,0.00,0,Wunderground v.1.15,2013-02-06 09:50:00,
2013-02-06 03:55:00,58.8,49.4,25.94,ESE,113,0.0,-999.0,71,0.00,,,0.00,0,Wunderground v.1.15,2013-02-06 09:55:00,
2013-02-06 04:00:00,58.2,49.2,25.94,East,93,1.0,1.0,72,0.00,,,0.00,0,Wunderground v.1.15,2013-02-06 10:00:00,
2013-02-06 04:05:00,57.9,49.3,25.94,East,90,0.0,-999.0,73,0.00,,,0.00,0,Wunderground v.1.15,2013-02-06 10:05:00,
2013-02-06 04:10:00,57.5,49.3,25.94,East,93,0.0,0.0,74,0.00,,,0.00,0,Wunderground v.1.15,2013-02-06 10:10:00,
2013-02-06 04:15:00,57.5,49.3,25.94,East,90,0.0,-999.0,74,0.00,,,0.00,0,Wunderground v.1.15,2013-02-06 10:15:00,
2013-02-06 04:20:00,57.9,50.0,25.94,East,99,0.0,1.0,75,0.00,,,0.00,0,Wunderground v.1.15,2013-02-06 10:20:00,
2013-02-06 04:25:00,58.6,50.3,25.95,NNE,26,1.0,1.0,74,0.00,,,0.00,0,Wunderground v.1.15,2013-02-06 10:25:00,
2013-02-06 04:30:00,58.9,51.0,25.95,ESE,113,1.0,-999.0,75,0.00,,,0.00,0,Wunderground v.1.15,2013-02-06 10:30:00,
2013-02-06 04:35:00,59.4,51.1,25.95,East,87,1.0,1.0,74,0.00,,,0.00,0,Wunderground v.1.15,2013-02-06 10:35:00,
2013-02-06 04:40:00,59.5,51.2,25.95,East,90,0.0,-999.0,74,0.00,,,0.00,0,Wunderground v.1.15,2013-02-06 10:40:00,
2013-02-06 04:45:00,59.5,50.8,25.95,East,100,0.0,1.0,73,0.00,,,0.00,0,Wunderground v.1.15,2013-02-06 10:45:00,
2013-02-06 04:50:00,59.4,50.7,25.95,East,90,0.0,-999.0,73,0.00,,,0.00,0,Wunderground v.1.15,2013-02-06 10:50:00,
2013-02-06 04:55:00,59.4,50.7,25.95,ENE,70,1.0,2.0,73,0.00,,,0.00,0,Wunderground v.1.15,2013-02-06 10:55:00,
2013-02-06 05:00:00,59.2,50.2,25.96,ENE,70,1.0,1.0,72,0.00,,,0.00,0,Wunderground v.1.15,2013-02-06 11:00:00,
2013-02-06 05:05:00,59.2,49.8,25.95,ENE,68,2.0,-999.0,71,0.00,,,0.00,0,Wunderground v.1.15,2013-02-06 11:05:00,
2013-02-06 05:10:00,59.2,49.4,25.96,NE,44,1.0,1.0,70,0.00,,,0.00,0,Wunderground v.1.15,2013-02-06 11:10:00,
2013-02-06 05:15:00,58.9,49.5,25.96,NE,45,1.0,-999.0,71,0.00,,,0.00,0,Wunderground v.1.15,2013-02-06 11:15:00,
2013-02-06 05:20:00,58.5,49.5,25.96,ENE,72,1.0,2.0,72,0.00,,,0.00,0,Wunderground v.1.15,2013-02-06 11:20:00,
2013-02-06 05:25:00,57.9,49.3,25.96,ENE,72,1.0,1.0,73,0.00,,,0.00,0,Wunderground v.1.15,2013-02-06 11:25:00,
2013-02-06 05:30:00,57.7,49.1,25.96,East,90,1.0,-999.0,73,0.00,,,0.00,0,Wunderground v.1.15,2013-02-06 11:30:00,
2013-02-06 05:35:00,57.4,49.2,25.97,East,87,1.0,1.0,74,0.00,,,0.00,0,Wunderground v.1.15,2013-02-06 11:35:00,
2013-02-06 05:40:00,57.1,48.9,25.97,East,90,1.0,-999.0,74,0.00,,,0.00,0,Wunderground v.1.15,2013-02-06 11:40:00,
2013-02-06 05:45:00,57.4,49.5,25.97,SSE,153,2.0,6.0,75,0.00,,,0.00,0,Wunderground v.1.15,2013-02-06 11:45:00,
2013-02-06 05:50:00,57.4,49.5,25.97,SSE,158,1.0,-999.0,75,0.00,,,0.00,0,Wunderground v.1.15,2013-02-06 11:50:00,
2013-02-06 05:55:00,57.9,50.4,25.97,ESE,106,1.0,2.0,76,0.00,,,0.00,0,Wunderground v.1.15,2013-02-06 11:55:00,
2013-02-06 06:00:00,58.3,50.8,25.97,ESE,113,1.0,-999.0,76,0.00,,,0.00,3,Wunderground v.1.15,2013-02-06 12:00:00,
2013-02-06 06:05:00,58.5,50.6,25.98,SSE,157,2.0,2.0,75,0.00,,,0.00,11,Wunderground v.1.15,2013-02-06 12:05:00,
2013-02-06 06:10:00,58.6,50.7,25.97,SSE,158,2.0,-999.0,75,0.00,,,0.00,13,Wunderground v.1.15,2013-02-06 12:10:00,
2013-02-06 06:15:00,58.8,50.5,25.98,SE,127,1.0,2.0,74,0.00,,,0.00,25,Wunderground v.1.15,2013-02-06 12:15:00,
2013-02-06 06:20:00,58.9,50.6,25.98,East,100,1.0,1.0,74,0.00,,,0.00,33,Wunderground v.1.15,2013-02-06 12:20:00,
2013-02-06 06:25:00,59.1,50.5,25.98,East,90,1.0,-999.0,73,0.00,,,0.00,37,Wunderground v.1.15,2013-02-06 12:25:00,
2013-02-06 06:30:00,59.4,50.0,25.98,SSE,158,2.0,2.0,71,0.00,,,0.00,44,Wunderground v.1.15,2013-02-06 12:30:00,
2013-02-06 06:35:00,59.8,49.6,25.98,SSE,158,1.0,-999.0,69,0.00,,,0.00,46,Wunderground v.1.15,2013-02-06 12:35:00,
2013-02-06 06:40:00,60.8,49.0,25.98,ENE,76,2.0,2.0,65,0.00,,,0.00,58,Wunderground v.1.15,2013-02-06 12:40:00,
2013-02-06 06:45:00,61.9,49.2,25.98,East,80,3.0,3.0,63,0.00,,,0.00,54,Wunderground v.1.15,2013-02-06 12:45:00,
2013-02-06 06:50:00,62.3,50.0,25.98,East,90,3.0,-999.0,64,0.00,,,0.00,70,Wunderground v.1.15,2013-02-06 12:50:00,
2013-02-06 06:55:00,62.6,51.1,25.99,East,96,2.0,2.0,66,0.00,,,0.00,76,Wunderground v.1.15,2013-02-06 12:55:00,
2013-02-06 07:00:00,63.0,50.2,25.99,SE,142,2.0,2.0,63,0.00,,,0.00,63,Wunderground v.1.15,2013-02-06 13:00:00,
2013-02-06 07:02:00,63.0,50.2,25.99,East,90,2.0,-999.0,63,0.00,,,0.00,73,Wunderground v.1.15,2013-02-06 13:02:00,
2013-02-06 07:05:00,63.6,48.5,25.99,NNE,13,2.0,2.0,58,0.00,,,0.00,65,Wunderground v.1.15,2013-02-06 13:05:00,
2013-02-06 07:07:00,63.4,48.8,25.99,SE,135,2.0,-999.0,59,0.00,,,0.00,65,Wunderground v.1.15,2013-02-06 13:07:00,
2013-02-06 07:10:00,64.1,48.1,25.99,East,90,3.0,-999.0,56,0.00,,,0.00,73,Wunderground v.1.15,2013-02-06 13:10:00,
2013-02-06 07:12:00,64.1,48.1,25.99,East,90,3.0,-999.0,56,0.00,,,0.00,73,Wunderground v.1.15,2013-02-06 13:12:00,
2013-02-06 07:15:00,64.7,48.2,25.99,SSE,157,2.0,4.0,55,0.00,,,0.00,244,Wunderground v.1.15,2013-02-06 13:15:00,
2013-02-06 07:17:00,64.6,48.1,25.99,NE,45,2.0,-999.0,55,0.00,,,0.00,247,Wunderground v.1.15,2013-02-06 13:17:00,
2013-02-06 07:20:00,65.2,47.6,25.99,NNE,20,2.0,2.0,53,0.00,,,0.00,246,Wunderground v.1.15,2013-02-06 13:20:00,
2013-02-06 07:22:00,65.1,47.5,25.99,SE,135,2.0,-999.0,53,0.00,,,0.00,252,Wunderground v.1.15,2013-02-06 13:22:00,
2013-02-06 07:25:00,65.5,47.9,25.99,East,90,3.0,-999.0,53,0.00,,,0.00,186,Wunderground v.1.15,2013-02-06 13:25:00,
2013-02-06 07:27:00,65.5,47.9,25.99,East,90,3.0,-999.0,53,0.00,,,0.00,186,Wunderground v.1.15,2013-02-06 13:27:00,
2013-02-06 07:30:00,65.5,47.9,26.00,ESE,108,4.0,4.0,53,0.00,,,0.00,54,Wunderground v.1.15,2013-02-06 13:30:00,
2013-02-06 07:32:00,65.5,47.9,26.00,East,90,4.0,-999.0,53,0.00,,,0.00,67,Wunderground v.1.15,2013-02-06 13:32:00,
2013-02-06 07:35:00,65.2,47.6,25.99,ESE,113,3.0,-999.0,53,0.00,,,0.00,60,Wunderground v.1.15,2013-02-06 13:35:00,
2013-02-06 07:37:00,65.2,47.6,25.99,ESE,113,3.0,-999.0,53,0.00,,,0.00,60,Wunderground v.1.15,2013-02-06 13:37:00,
2013-02-06 07:40:00,65.1,47.5,26.00,SSE,167,3.0,4.0,53,0.00,,,0.00,185,Wunderground v.1.15,2013-02-06 13:40:00,
2013-02-06 07:42:00,65.1,47.5,26.00,NE,45,2.0,-999.0,53,0.00,,,0.00,136,Wunderground v.1.15,2013-02-06 13:42:00,
2013-02-06 07:45:00,65.2,48.1,26.00,NE,48,2.0,4.0,54,0.00,,,0.00,265,Wunderground v.1.15,2013-02-06 13:45:00,
2013-02-06 07:47:00,65.2,48.1,26.00,NNW,338,2.0,-999.0,54,0.00,,,0.00,229,Wunderground v.1.15,2013-02-06 13:47:00,
2013-02-06 07:50:00,65.5,47.9,26.00,NNE,23,3.0,-999.0,53,0.00,,,0.00,259,Wunderground v.1.15,2013-02-06 13:50:00,
2013-02-06 07:52:00,65.5,47.9,26.00,NNE,23,3.0,-999.0,53,0.00,,,0.00,259,Wunderground v.1.15,2013-02-06 13:52:00,
2013-02-06 07:57:00,65.9,47.8,26.00,East,90,3.0,-999.0,52,0.00,,,0.00,235,Wunderground v.1.15,2013-02-06 13:57:00,
2013-02-06 08:02:00,65.9,47.8,26.00,North,0,3.0,-999.0,52,0.00,,,0.00,136,Wunderground v.1.15,2013-02-06 14:02:00,
2013-02-06 08:07:00,65.9,47.8,26.00,NW,315,3.0,-999.0,52,0.00,,,0.00,253,Wunderground v.1.15,2013-02-06 14:07:00,
2013-02-06 08:12:00,66.2,47.5,26.00,NE,45,4.0,-999.0,51,0.00,,,0.00,434,Wunderground v.1.15,2013-02-06 14:12:00,
2013-02-06 08:17:00,66.8,48.1,26.00,NW,315,3.0,-999.0,51,0.00,,,0.00,406,Wunderground v.1.15,2013-02-06 14:17:00,
2013-02-06 08:22:00,67.2,47.4,26.00,ESE,113,2.0,-999.0,49,0.00,,,0.00,300,Wunderground v.1.15,2013-02-06 14:22:00,
2013-02-06 08:27:00,67.5,47.7,26.00,NNW,338,4.0,-999.0,49,0.00,,,0.00,441,Wunderground v.1.15,2013-02-06 14:27:00,
2013-02-06 08:32:00,67.8,47.9,26.00,North,0,3.0,-999.0,49,0.00,,,0.00,535,Wunderground v.1.15,2013-02-06 14:32:00,
2013-02-06 08:37:00,68.5,47.5,26.00,NNW,338,3.0,-999.0,47,0.00,,,0.00,556,Wunderground v.1.15,2013-02-06 14:37:00,
2013-02-06 08:42:00,68.7,47.6,26.00,North,0,5.0,-999.0,47,0.00,,,0.00,549,Wunderground v.1.15,2013-02-06 14:42:00,
2013-02-06 08:47:00,69.0,47.4,26.00,North,0,4.0,-999.0,46,0.00,,,0.00,594,Wunderground v.1.15,2013-02-06 14:47:00,
2013-02-06 08:52:00,69.5,47.8,26.00,North,0,4.0,-999.0,46,0.00,,,0.00,614,Wunderground v.1.15,2013-02-06 14:52:00,
2013-02-06 09:02:00,69.5,48.4,26.00,NNE,23,5.0,-999.0,47,0.00,,,0.00,595,Wunderground v.1.15,2013-02-06 15:02:00,
2013-02-06 09:09:00,70.0,48.8,26.00,ESE,105,7.0,7.0,47,0.00,,,0.00,510,Wunderground v.1.15,2013-02-06 15:09:00,
2013-02-06 09:14:00,70.7,49.5,26.00,NW,308,4.0,9.0,47,0.00,,,0.00,696,Wunderground v.1.15,2013-02-06 15:14:00,
2013-02-06 09:19:00,71.5,49.6,26.00,East,92,1.0,6.0,46,0.00,,,0.00,652,Wunderground v.1.15,2013-02-06 15:19:00,
2013-02-06 09:25:00,72.0,50.1,26.00,NE,37,3.0,3.0,46,0.00,,,0.00,355,Wunderground v.1.15,2013-02-06 15:25:00,
2013-02-06 09:31:00,71.5,50.8,26.00,ESE,121,2.0,7.0,48,0.00,,,0.00,633,Wunderground v.1.15,2013-02-06 15:31:00,
2013-02-06 09:36:00,71.7,51.5,26.00,SE,126,1.0,4.0,49,0.00,,,0.00,737,Wunderground v.1.15,2013-02-06 15:36:00,
2013-02-06 09:42:00,71.7,51.0,26.00,ESE,104,2.0,11.0,48,0.00,,,0.00,592,Wunderground v.1.15,2013-02-06 15:42:00,
2013-02-06 09:47:00,71.4,51.2,25.99,ESE,122,6.0,6.0,49,0.00,,,0.00,561,Wunderground v.1.15,2013-02-06 15:47:00,
2013-02-06 09:53:00,71.5,51.9,25.99,WNW,284,8.0,11.0,50,0.00,,,0.00,606,Wunderground v.1.15,2013-02-06 15:53:00,
2013-02-06 09:58:00,72.0,51.2,25.99,SSE,149,6.0,8.0,48,0.00,,,0.00,592,Wunderground v.1.15,2013-02-06 15:58:00,
2013-02-06 10:04:00,72.2,52.0,25.99,NNE,21,1.0,9.0,49,0.00,,,0.00,759,Wunderground v.1.15,2013-02-06 16:04:00,
2013-02-06 10:09:00,73.2,51.8,25.99,North,355,2.0,9.0,47,0.00,,,0.00,814,Wunderground v.1.15,2013-02-06 16:09:00,
2013-02-06 10:15:00,74.1,52.6,25.99,North,5,8.0,8.0,47,0.00,,,0.00,833,Wunderground v.1.15,2013-02-06 16:15:00,
2013-02-06 10:20:00,73.9,52.4,25.99,East,88,2.0,4.0,47,0.00,,,0.00,835,Wunderground v.1.15,2013-02-06 16:20:00,
2013-02-06 10:26:00,73.4,51.9,25.99,NNE,17,5.0,10.0,47,0.00,,,0.00,722,Wunderground v.1.15,2013-02-06 16:26:00,
2013-02-06 10:32:00,73.6,52.7,25.99,East,101,4.0,6.0,48,0.00,,,0.00,860,Wunderground v.1.15,2013-02-06 16:32:00,
2013-02-06 10:37:00,73.8,52.9,25.99,ENE,66,5.0,8.0,48,0.00,,,0.00,821,Wunderground v.1.15,2013-02-06 16:37:00,
2013-02-06 10:43:00,73.6,52.1,25.99,East,101,2.0,11.0,47,0.00,,,0.00,385,Wunderground v.1.15,2013-02-06 16:43:00,
2013-02-06 10:48:00,73.8,52.9,25.99,East,86,3.0,11.0,48,0.00,,,0.00,729,Wunderground v.1.15,2013-02-06 16:48:00,
2013-02-06 10:53:00,73.9,53.0,25.98,SE,132,5.0,9.0,48,0.00,,,0.00,932,Wunderground v.1.15,2013-02-06 16:53:00,
2013-02-06 10:59:00,74.5,53.5,25.98,NNW,340,3.0,9.0,48,0.00,,,0.00,784,Wunderground v.1.15,2013-02-06 16:59:00,
2013-02-06 11:04:00,74.3,53.3,25.98,NE,55,5.0,12.0,48,0.00,,,0.00,341,Wunderground v.1.15,2013-02-06 17:04:00,
2013-02-06 11:10:00,73.4,54.2,25.98,ENE,61,2.0,5.0,51,0.00,,,0.00,860,Wunderground v.1.15,2013-02-06 17:10:00,
2013-02-06 11:15:00,73.9,54.6,25.98,North,5,3.0,9.0,51,0.00,,,0.00,761,Wunderground v.1.15,2013-02-06 17:15:00,
2013-02-06 11:21:00,73.9,55.2,25.97,North,355,6.0,8.0,52,0.00,,,0.00,826,Wunderground v.1.15,2013-02-06 17:21:00,
2013-02-06 11:26:00,74.1,55.3,25.97,WNW,294,6.0,10.0,52,0.00,,,0.00,823,Wunderground v.1.15,2013-02-06 17:26:00,
2013-02-06 11:32:00,74.6,56.3,25.97,NNW,331,6.0,7.0,53,0.00,,,0.00,823,Wunderground v.1.15,2013-02-06 17:32:00,
2013-02-06 11:37:00,74.3,56.6,25.97,North,5,1.0,16.0,54,0.00,,,0.00,819,Wunderground v.1.15,2013-02-06 17:37:00,
2013-02-06 11:42:00,73.8,57.1,25.97,NE,53,6.0,12.0,56,0.00,,,0.00,758,Wunderground v.1.15,2013-02-06 17:42:00,
2013-02-06 11:48:00,73.8,57.1,25.96,ENE,64,8.0,15.0,56,0.00,,,0.00,819,Wunderground v.1.15,2013-02-06 17:48:00,
2013-02-06 11:53:00,73.4,57.7,25.96,ENE,77,7.0,9.0,58,0.00,,,0.00,935,Wunderground v.1.15,2013-02-06 17:53:00,
2013-02-06 11:58:00,73.6,57.9,25.97,ENE,61,3.0,12.0,58,0.00,,,0.00,919,Wunderground v.1.15,2013-02-06 17:58:00,
2013-02-06 12:04:00,73.4,58.7,25.96,NNW,340,3.0,11.0,60,0.00,,,0.00,868,Wunderground v.1.15,2013-02-06 18:04:00,
2013-02-06 12:09:00,73.8,58.6,25.96,ESE,109,4.0,5.0,59,0.00,,,0.00,680,Wunderground v.1.15,2013-02-06 18:09:00,
2013-02-06 12:15:00,73.9,59.1,25.96,ENE,60,2.0,12.0,60,0.00,,,0.00,953,Wunderground v.1.15,2013-02-06 18:15:00,
2013-02-06 12:21:00,73.1,58.8,25.96,NE,39,5.0,11.0,61,0.00,,,0.00,977,Wunderground v.1.15,2013-02-06 18:21:00,
2013-02-06 12:26:00,73.1,59.3,25.96,ESE,109,5.0,11.0,62,0.00,,,0.00,977,Wunderground v.1.15,2013-02-06 18:26:00,
2013-02-06 12:31:00,73.1,58.8,25.95,WSW,250,4.0,14.0,61,0.00,,,0.00,350,Wunderground v.1.15,2013-02-06 18:31:00,
2013-02-06 12:37:00,72.0,59.2,25.95,East,97,4.0,16.0,64,0.00,,,0.00,369,Wunderground v.1.15,2013-02-06 18:37:00,
2013-02-06 12:42:00,70.8,58.9,25.95,ENE,75,5.0,13.0,66,0.00,,,0.00,418,Wunderground v.1.15,2013-02-06 18:42:00,
2013-02-06 12:48:00,70.8,58.9,25.95,East,97,7.0,13.0,66,0.00,,,0.00,408,Wunderground v.1.15,2013-02-06 18:48:00,
2013-02-06 12:53:00,70.7,59.2,25.95,East,91,12.0,14.0,67,0.00,,,0.00,450,Wunderground v.1.15,2013-02-06 18:53:00,
2013-02-06 12:59:00,70.7,59.2,25.95,West,278,7.0,15.0,67,0.00,,,0.00,1048,Wunderground v.1.15,2013-02-06 18:59:00,
2013-02-06 13:04:00,70.7,59.2,25.94,NNE,14,8.0,12.0,67,0.00,,,0.00,404,Wunderground v.1.15,2013-02-06 19:04:00,
2013-02-06 13:10:00,70.2,59.1,25.94,WNW,289,8.0,8.0,68,0.00,,,0.00,306,Wunderground v.1.15,2013-02-06 19:10:00,
2013-02-06 13:15:00,70.0,59.4,25.94,East,88,6.0,14.0,69,0.00,,,0.00,366,Wunderground v.1.15,2013-02-06 19:15:00,
2013-02-06 13:21:00,70.0,59.4,25.94,West,263,6.0,10.0,69,0.00,,,0.00,353,Wunderground v.1.15,2013-02-06 19:21:00,
2013-02-06 13:26:00,70.2,59.6,25.94,NNE,19,1.0,12.0,69,0.00,,,0.00,304,Wunderground v.1.15,2013-02-06 19:26:00,
2013-02-06 13:31:00,70.0,59.4,25.94,North,355,2.0,9.0,69,0.00,,,0.00,323,Wunderground v.1.15,2013-02-06 19:31:00,
2013-02-06 13:37:00,70.0,59.4,25.93,ESE,117,5.0,9.0,69,0.00,,,0.00,320,Wunderground v.1.15,2013-02-06 19:37:00,
2013-02-06 13:42:00,70.2,59.6,25.93,SSE,160,6.0,9.0,69,0.00,,,0.00,302,Wunderground v.1.15,2013-02-06 19:42:00,
2013-02-06 13:48:00,69.8,59.2,25.93,East,84,6.0,9.0,69,0.00,,,0.00,362,Wunderground v.1.15,2013-02-06 19:48:00,
2013-02-06 13:54:00,70.0,59.4,25.93,SSE,166,5.0,6.0,69,0.00,,,0.00,230,Wunderground v.1.15,2013-02-06 19:54:00,
2013-02-06 13:59:00,70.0,59.4,25.93,ESE,111,4.0,7.0,69,0.00,,,0.00,155,Wunderground v.1.15,2013-02-06 19:59:00,
2013-02-06 14:05:00,69.7,59.5,25.93,East,85,4.0,10.0,70,0.00,,,0.00,202,Wunderground v.1.15,2013-02-06 20:05:00,
2013-02-06 14:10:00,69.5,59.3,25.93,WNW,298,4.0,4.0,70,0.00,,,0.00,163,Wunderground v.1.15,2013-02-06 20:10:00,
2013-02-06 14:16:00,69.7,59.9,25.93,ENE,65,4.0,4.0,71,0.00,,,0.00,181,Wunderground v.1.15,2013-02-06 20:16:00,
2013-02-06 14:21:00,69.7,59.9,25.93,NE,42,4.0,8.0,71,0.00,,,0.00,255,Wunderground v.1.15,2013-02-06 20:21:00,
2013-02-06 14:27:00,69.8,59.6,25.93,East,85,4.0,8.0,70,0.00,,,0.00,199,Wunderground v.1.15,2013-02-06 20:27:00,
2013-02-06 14:32:00,69.8,59.6,25.93,NE,34,3.0,5.0,70,0.00,,,0.00,262,Wunderground v.1.15,2013-02-06 20:32:00,
2013-02-06 14:38:00,70.0,59.8,25.92,SW,229,4.0,8.0,70,0.00,,,0.00,274,Wunderground v.1.15,2013-02-06 20:38:00,
2013-02-06 14:44:00,70.7,59.6,25.92,East,100,5.0,8.0,68,0.00,,,0.00,350,Wunderground v.1.15,2013-02-06 20:44:00,
2013-02-06 14:49:00,71.0,59.5,25.92,North,360,6.0,12.0,67,0.00,,,0.00,185,Wunderground v.1.15,2013-02-06 20:49:00,
2013-02-06 14:54:00,70.7,59.2,25.92,West,280,5.0,10.0,67,0.00,,,0.00,192,Wunderground v.1.15,2013-02-06 20:54:00,
2013-02-06 15:00:00,70.5,59.4,25.92,North,10,5.0,6.0,68,0.00,,,0.00,209,Wunderground v.1.15,2013-02-06 21:00:00,
2013-02-06 15:05:00,70.5,59.4,25.91,ESE,120,5.0,6.0,68,0.00,,,0.00,234,Wunderground v.1.15,2013-02-06 21:05:00,
2013-02-06 15:11:00,70.7,59.6,25.91,West,279,4.0,7.0,68,0.00,,,0.00,221,Wunderground v.1.15,2013-02-06 21:11:00,
2013-02-06 15:16:00,70.5,59.8,25.91,NNE,17,4.0,7.0,69,0.00,,,0.00,471,Wunderground v.1.15,2013-02-06 21:16:00,
2013-02-06 15:21:00,70.7,60.0,25.91,SSE,163,5.0,5.0,69,0.00,,,0.00,271,Wunderground v.1.15,2013-02-06 21:21:00,
2013-02-06 15:27:00,71.5,60.0,25.91,NNW,329,4.0,8.0,67,0.00,,,0.00,285,Wunderground v.1.15,2013-02-06 21:27:00,
2013-02-06 15:33:00,71.2,59.7,25.91,NNW,336,5.0,9.0,67,0.00,,,0.00,241,Wunderground v.1.15,2013-02-06 21:33:00,
2013-02-06 15:38:00,71.0,59.9,25.91,NE,49,5.0,9.0,68,0.00,,,0.00,169,Wunderground v.1.15,2013-02-06 21:38:00,
2013-02-06 15:43:00,70.8,60.1,25.91,ESE,119,5.0,8.0,69,0.00,,,0.00,279,Wunderground v.1.15,2013-02-06 21:43:00,
2013-02-06 15:49:00,70.7,60.4,25.91,NE,44,6.0,13.0,70,0.00,,,0.00,494,Wunderground v.1.15,2013-02-06 21:49:00,
2013-02-06 15:54:00,71.0,59.9,25.91,NNE,26,6.0,8.0,68,0.00,,,0.00,387,Wunderground v.1.15,2013-02-06 21:54:00,
2013-02-06 15:59:00,71.0,59.9,25.91,ENE,58,5.0,8.0,68,0.00,,,0.00,359,Wunderground v.1.15,2013-02-06 21:59:00,
2013-02-06 16:05:00,71.2,59.7,25.91,North,5,4.0,6.0,67,0.00,,,0.00,283,Wunderground v.1.15,2013-02-06 22:05:00,
2013-02-06 16:11:00,70.7,59.2,25.91,ESE,115,5.0,5.0,67,0.00,,,0.00,111,Wunderground v.1.15,2013-02-06 22:11:00,
2013-02-06 16:16:00,70.5,59.0,25.91,North,355,4.0,8.0,67,0.00,,,0.00,79,Wunderground v.1.15,2013-02-06 22:16:00,
2013-02-06 16:22:00,70.3,58.4,25.91,NNE,22,4.0,5.0,66,0.00,,,0.00,84,Wunderground v.1.15,2013-02-06 22:22:00,
2013-02-06 16:27:00,69.8,59.2,25.91,NW,319,5.0,9.0,69,0.00,,,0.00,121,Wunderground v.1.15,2013-02-06 22:27:00,
2013-02-06 16:33:00,69.7,59.1,25.92,ENE,67,4.0,5.0,69,0.00,,,0.00,81,Wunderground v.1.15,2013-02-06 22:33:00,
2013-02-06 16:38:00,69.5,58.9,25.92,ESE,122,4.0,9.0,69,0.00,,,0.00,84,Wunderground v.1.15,2013-02-06 22:38:00,
2013-02-06 16:44:00,69.2,59.0,25.92,ESE,112,5.0,6.0,70,0.00,,,0.00,104,Wunderground v.1.15,2013-02-06 22:44:00,
2013-02-06 16:49:00,69.2,59.0,25.92,ENE,76,5.0,6.0,70,0.00,,,0.00,76,Wunderground v.1.15,2013-02-06 22:49:00,
2013-02-06 16:54:00,69.0,59.2,25.92,East,94,5.0,11.0,71,0.00,,,0.00,93,Wunderground v.1.15,2013-02-06 22:54:00,
2013-02-06 17:00:00,68.8,59.0,25.93,East,96,6.0,6.0,71,0.00,,,0.00,56,Wunderground v.1.15,2013-02-06 23:00:00,
2013-02-06 17:06:00,68.7,59.3,25.93,ESE,113,4.0,6.0,72,0.00,,,0.00,58,Wunderground v.1.15,2013-02-06 23:06:00,
2013-02-06 17:11:00,68.3,59.3,25.93,North,10,4.0,5.0,73,0.00,,,0.00,49,Wunderground v.1.15,2013-02-06 23:11:00,
2013-02-06 17:17:00,68.2,59.2,25.93,SE,142,4.0,9.0,73,0.00,,,0.00,37,Wunderground v.1.15,2013-02-06 23:17:00,
2013-02-06 17:23:00,68.0,59.4,25.93,South,189,4.0,6.0,74,0.00,,,0.00,21,Wunderground v.1.15,2013-02-06 23:23:00,
2013-02-06 17:28:00,67.7,59.5,25.93,North,11,4.0,6.0,75,0.00,,,0.00,11,Wunderground v.1.15,2013-02-06 23:28:00,
2013-02-06 17:33:00,67.7,59.9,25.93,NNE,12,3.0,6.0,76,0.00,,,0.00,7,Wunderground v.1.15,2013-02-06 23:33:00,
2013-02-06 17:39:00,67.5,59.7,25.93,ESE,114,3.0,6.0,76,0.00,,,0.00,0,Wunderground v.1.15,2013-02-06 23:39:00,
2013-02-06 17:45:00,67.3,59.5,25.94,ESE,115,3.0,7.0,76,0.00,,,0.00,0,Wunderground v.1.15,2013-02-06 23:45:00,
2013-02-06 17:50:00,67.2,59.7,25.94,SSE,150,4.0,4.0,77,0.00,,,0.00,0,Wunderground v.1.15,2013-02-06 23:50:00,
2013-02-06 17:56:00,66.8,59.7,25.93,East,88,4.0,5.0,78,0.00,,,0.00,0,Wunderground v.1.15,2013-02-06 23:56:00,
2013-02-06 18:01:00,66.3,59.2,25.94,SSE,161,4.0,7.0,78,0.00,,,0.00,0,Wunderground v.1.15,2013-02-07 00:01:00,
2013-02-06 18:07:00,66.2,58.8,25.94,SSE,149,3.0,7.0,77,0.00,,,0.00,0,Wunderground v.1.15,2013-02-07 00:07:00,
2013-02-06 18:12:00,66.0,58.6,25.94,NNW,343,3.0,4.0,77,0.00,,,0.00,0,Wunderground v.1.15,2013-02-07 00:12:00,
2013-02-06 18:18:00,65.9,58.8,25.94,ESE,113,4.0,6.0,78,0.00,,,0.00,0,Wunderground v.1.15,2013-02-07 00:18:00,
2013-02-06 18:23:00,65.9,58.5,25.94,NE,38,4.0,4.0,77,0.00,,,0.00,0,Wunderground v.1.15,2013-02-07 00:23:00,
2013-02-06 18:28:00,65.9,58.8,25.94,East,95,3.0,4.0,78,0.00,,,0.00,0,Wunderground v.1.15,2013-02-07 00:28:00,
2013-02-06 18:34:00,65.9,58.8,25.95,East,80,3.0,4.0,78,0.00,,,0.00,0,Wunderground v.1.15,2013-02-07 00:34:00,
2013-02-06 18:39:00,65.9,58.5,25.95,East,95,3.0,7.0,77,0.00,,,0.00,0,Wunderground v.1.15,2013-02-07 00:39:00,
2013-02-06 18:45:00,66.2,58.4,25.95,East,99,3.0,6.0,76,0.00,,,0.00,0,Wunderground v.1.15,2013-02-07 00:45:00,
2013-02-06 18:51:00,66.3,58.5,25.95,ESE,106,3.0,3.0,76,0.00,,,0.00,0,Wunderground v.1.15,2013-02-07 00:51:00,
2013-02-06 18:57:00,66.3,58.1,25.95,ESE,121,1.0,3.0,75,0.00,,,0.00,0,Wunderground v.1.15,2013-02-07 00:57:00,
2013-02-06 19:02:00,66.3,58.5,25.95,ESE,110,1.0,4.0,76,0.00,,,0.00,0,Wunderground v.1.15,2013-02-07 01:02:00,
2013-02-06 19:08:00,66.3,58.5,25.95,ESE,121,2.0,5.0,76,0.00,,,0.00,0,Wunderground v.1.15,2013-02-07 01:08:00,
2013-02-06 19:14:00,66.2,58.4,25.96,ENE,71,2.0,3.0,76,0.00,,,0.00,0,Wunderground v.1.15,2013-02-07 01:14:00,
2013-02-06 19:19:00,66.2,58.4,25.96,SSE,150,2.0,8.0,76,0.00,,,0.00,0,Wunderground v.1.15,2013-02-07 01:19:00,
2013-02-06 19:25:00,66.2,58.4,25.96,NNE,16,3.0,6.0,76,0.00,,,0.00,0,Wunderground v.1.15,2013-02-07 01:25:00,
2013-02-06 19:30:00,66.0,58.2,25.97,ESE,105,3.0,3.0,76,0.00,,,0.00,0,Wunderground v.1.15,2013-02-07 01:30:00,
2013-02-06 19:35:00,65.9,58.5,25.97,North,11,2.0,4.0,77,0.00,,,0.00,0,Wunderground v.1.15,2013-02-07 01:35:00,
2013-02-06 19:41:00,65.7,57.9,25.97,SE,128,3.0,8.0,76,0.00,,,0.00,0,Wunderground v.1.15,2013-02-07 01:41:00,
2013-02-06 19:47:00,65.7,58.3,25.97,ENE,75,4.0,8.0,77,0.00,,,0.00,0,Wunderground v.1.15,2013-02-07 01:47:00,
2013-02-06 19:52:00,65.7,58.3,25.97,NNE,24,4.0,7.0,77,0.00,,,0.00,0,Wunderground v.1.15,2013-02-07 01:52:00,
2013-02-06 19:57:00,65.7,58.3,25.97,East,85,4.0,11.0,77,0.00,,,0.00,0,Wunderground v.1.15,2013-02-07 01:57:00,
2013-02-06 20:03:00,65.5,58.1,25.97,ENE,77,3.0,5.0,77,0.00,,,0.00,0,Wunderground v.1.15,2013-02-07 02:03:00,
2013-02-06 20:09:00,65.4,58.4,25.98,ESE,121,2.0,5.0,78,0.00,,,0.00,0,Wunderground v.1.15,2013-02-07 02:09:00,
2013-02-06 20:14:00,65.2,58.2,25.98,South,187,2.0,2.0,78,0.00,,,0.00,0,Wunderground v.1.15,2013-02-07 02:14:00,
2013-02-06 20:20:00,65.1,58.4,25.98,East,98,2.0,2.0,79,0.00,,,0.00,0,Wunderground v.1.15,2013-02-07 02:20:00,
2013-02-06 20:25:00,64.9,58.2,25.99,ENE,78,2.0,2.0,79,0.00,,,0.00,0,Wunderground v.1.15,2013-02-07 02:25:00,
2013-02-06 20:31:00,64.9,58.2,25.98,East,89,2.0,3.0,79,0.00,,,0.00,0,Wunderground v.1.15,2013-02-07 02:31:00,
2013-02-06 20:36:00,64.7,58.0,25.99,ENE,60,2.0,5.0,79,0.00,,,0.00,0,Wunderground v.1.15,2013-02-07 02:36:00,
2013-02-06 20:41:00,64.7,58.0,25.99,East,99,3.0,6.0,79,0.00,,,0.00,0,Wunderground v.1.15,2013-02-07 02:41:00,
2013-02-06 20:47:00,64.6,57.9,25.99,East,94,4.0,6.0,79,0.00,,,0.00,0,Wunderground v.1.15,2013-02-07 02:47:00,
2013-02-06 20:53:00,64.6,57.9,25.99,East,101,2.0,6.0,79,0.00,,,0.00,0,Wunderground v.1.15,2013-02-07 02:53:00,
2013-02-06 20:58:00,64.6,57.9,25.99,ESE,105,2.0,8.0,79,0.00,,,0.00,0,Wunderground v.1.15,2013-02-07 02:58:00,
2013-02-06 21:04:00,64.4,57.7,26.00,NNE,30,3.0,7.0,79,0.00,,,0.00,0,Wunderground v.1.15,2013-02-07 03:04:00,
2013-02-06 21:09:00,64.4,57.7,26.00,South,169,3.0,7.0,79,0.00,,,0.00,0,Wunderground v.1.15,2013-02-07 03:09:00,
2013-02-06 21:14:00,64.4,57.7,26.00,SE,134,3.0,6.0,79,0.00,,,0.00,0,Wunderground v.1.15,2013-02-07 03:14:00,
2013-02-06 21:20:00,64.2,57.9,26.00,SW,226,3.0,3.0,80,0.00,,,0.00,0,Wunderground v.1.15,2013-02-07 03:20:00,
2013-02-06 21:25:00,64.1,57.8,26.00,East,82,2.0,3.0,80,0.00,,,0.00,0,Wunderground v.1.15,2013-02-07 03:25:00,
2013-02-06 21:30:00,63.9,57.6,26.00,ESE,113,1.0,4.0,80,0.00,,,0.00,0,Wunderground v.1.15,2013-02-07 03:30:00,
2013-02-06 21:36:00,63.8,57.5,26.00,NNW,335,2.0,5.0,80,0.00,,,0.00,0,Wunderground v.1.15,2013-02-07 03:36:00,
2013-02-06 21:41:00,63.8,57.5,26.00,East,86,2.0,2.0,80,0.00,,,0.00,0,Wunderground v.1.15,2013-02-07 03:41:00,
2013-02-06 21:47:00,63.8,57.2,26.00,ESE,102,2.0,4.0,79,0.00,,,0.00,0,Wunderground v.1.15,2013-02-07 03:47:00,
2013-02-06 21:52:00,63.8,57.2,25.99,NNW,329,1.0,1.0,79,0.00,,,0.00,0,Wunderground v.1.15,2013-02-07 03:52:00,
2013-02-06 21:57:00,63.6,57.0,26.00,NW,315,1.0,3.0,79,0.00,,,0.00,0,Wunderground v.1.15,2013-02-07 03:57:00,
2013-02-06 22:03:00,63.6,57.0,26.00,ENE,60,0.0,1.0,79,0.00,,,0.00,0,Wunderground v.1.15,2013-02-07 04:03:00,
2013-02-06 22:08:00,63.4,56.8,26.00,East,90,0.0,2.0,79,0.00,,,0.00,0,Wunderground v.1.15,2013-02-07 04:08:00,
2013-02-06 22:13:00,63.4,56.8,25.99,North,360,1.0,2.0,79,0.00,,,0.00,0,Wunderground v.1.15,2013-02-07 04:13:00,
2013-02-06 22:19:00,63.3,57.0,25.99,East,88,1.0,2.0,80,0.00,,,0.00,0,Wunderground v.1.15,2013-02-07 04:19:00,
2013-02-06 22:24:00,63.3,57.0,25.99,East,88,0.0,1.0,80,0.00,,,0.00,0,Wunderground v.1.15,2013-02-07 04:24:00,
2013-02-06 22:29:00,63.1,56.8,25.99,East,80,0.0,2.0,80,0.00,,,0.00,0,Wunderground v.1.15,2013-02-07 04:29:00,
2013-02-06 22:35:00,63.0,56.4,25.99,East,80,1.0,1.0,79,0.00,,,0.00,0,Wunderground v.1.15,2013-02-07 04:35:00,
2013-02-06 22:40:00,63.0,56.4,25.99,SE,129,1.0,1.0,79,0.00,,,0.00,0,Wunderground v.1.15,2013-02-07 04:40:00,
2013-02-06 22:46:00,63.0,56.0,25.99,East,98,1.0,2.0,78,0.00,,,0.00,0,Wunderground v.1.15,2013-02-07 04:46:00,
2013-02-06 22:51:00,63.0,55.7,25.99,East,94,1.0,2.0,77,0.00,,,0.00,0,Wunderground v.1.15,2013-02-07 04:51:00,
2013-02-06 22:57:00,63.1,55.4,25.99,NW,309,2.0,5.0,76,0.00,,,0.00,0,Wunderground v.1.15,2013-02-07 04:57:00,
2013-02-06 23:00:00,63.1,55.4,25.99,SE,143,2.0,4.0,76,0.00,,,0.00,0,Wunderground v.1.15,2013-02-07 05:00:00,
2013-02-06 23:03:00,63.3,55.6,25.99,East,83,3.0,4.0,76,0.00,,,0.00,0,Wunderground v.1.15,2013-02-07 05:03:00,
2013-02-06 23:04:00,63.3,55.6,25.99,SSE,163,3.0,4.0,76,0.00,,,0.00,0,Wunderground v.1.15,2013-02-07 05:04:00,
2013-02-06 23:05:00,63.3,55.6,25.99,SSE,163,3.0,4.0,76,0.00,,,0.00,0,Wunderground v.1.15,2013-02-07 05:05:00,
2013-02-06 23:11:00,63.3,55.2,25.99,SSE,153,2.0,4.0,75,0.00,,,0.00,0,Wunderground v.1.15,2013-02-07 05:11:00,
2013-02-06 23:17:00,63.3,54.9,25.99,East,95,2.0,7.0,74,0.00,,,0.00,0,Wunderground v.1.15,2013-02-07 05:17:00,
2013-02-06 23:22:00,63.4,54.6,25.99,ESE,107,3.0,12.0,73,0.00,,,0.00,0,Wunderground v.1.15,2013-02-07 05:22:00,
2013-02-06 23:27:00,63.4,54.6,25.98,ESE,104,4.0,12.0,73,0.00,,,0.00,0,Wunderground v.1.15,2013-02-07 05:27:00,
2013-02-06 23:33:00,63.4,54.6,25.98,ENE,77,4.0,5.0,73,0.00,,,0.00,0,Wunderground v.1.15,2013-02-07 05:33:00,
2013-02-06 23:38:00,63.4,55.0,25.98,South,182,3.0,5.0,74,0.00,,,0.00,0,Wunderground v.1.15,2013-02-07 05:38:00,
2013-02-06 23:43:00,63.3,54.9,25.98,East,90,2.0,4.0,74,0.00,,,0.00,0,Wunderground v.1.15,2013-02-07 05:43:00,
2013-02-06 23:48:00,63.3,54.9,25.98,East,95,3.0,6.0,74,0.00,,,0.00,0,Wunderground v.1.15,2013-02-07 05:48:00,
2013-02-06 23:54:00,63.1,54.7,25.97,NE,49,3.0,5.0,74,0.00,,,0.00,0,Wunderground v.1.15,2013-02-07 05:54:00,
2013-02-06 23:59:00,63.1,54.7,25.97,ESE,103,2.0,5.0,74,0.00,,,0.00,0,Wunderground v.1.15,2013-02-07 05:59:00,